createdAt,value
2023-05-24T00:01:20.855Z,992.2
2023-05-24T00:03:47.472Z,992.2
2023-05-24T00:06:14.104Z,992.2
2023-05-24T00:08:40.713Z,992.2
2023-05-24T00:11:07.341Z,992.1
2023-05-24T00:16:00.573Z,992.1
2023-05-24T00:18:27.208Z,992.1
2023-05-24T00:20:53.844Z,992.1
2023-05-24T00:23:20.464Z,992.1
2023-05-24T00:25:47.066Z,992.1
2023-05-24T00:28:13.728Z,992.1
2023-05-24T00:30:40.315Z,992.1
2023-05-24T00:33:05.459Z,992
2023-05-24T00:35:32.057Z,992
2023-05-24T00:37:58.698Z,992
2023-05-24T00:40:25.311Z,992
2023-05-24T00:42:51.931Z,992
2023-05-24T00:45:18.624Z,991.9
2023-05-24T00:47:45.186Z,992
2023-05-24T00:50:11.800Z,991.9
2023-05-24T00:52:36.945Z,991.9
2023-05-24T00:55:03.594Z,991.8
2023-05-24T00:57:30.179Z,991.9
2023-05-24T00:59:56.794Z,991.9
2023-05-24T01:02:21.931Z,991.8
2023-05-24T01:04:48.554Z,991.9
2023-05-24T01:07:15.176Z,991.9
2023-05-24T01:09:41.791Z,992
2023-05-24T01:12:08.419Z,991.9
2023-05-24T01:14:35.056Z,992
2023-05-24T01:17:01.667Z,991.9
2023-05-24T01:19:28.292Z,992
2023-05-24T01:21:54.910Z,991.9
2023-05-24T01:24:21.535Z,992
2023-05-24T01:26:48.162Z,992
2023-05-24T01:29:14.764Z,991.9
2023-05-24T01:31:41.419Z,992
2023-05-24T01:34:08.029Z,992
2023-05-24T01:36:33.147Z,991.9
2023-05-24T01:38:59.762Z,992
2023-05-24T01:41:26.389Z,991.9
2023-05-24T01:43:53.017Z,992
2023-05-24T01:46:18.144Z,991.9
2023-05-24T01:48:44.765Z,992
2023-05-24T01:51:11.401Z,992
2023-05-24T01:53:38.005Z,992.1
2023-05-24T01:56:04.627Z,992.1
2023-05-24T01:58:31.276Z,992
2023-05-24T02:00:57.869Z,992
2023-05-24T02:03:24.489Z,992
2023-05-24T02:05:51.119Z,992.1
2023-05-24T02:08:17.732Z,992.1
2023-05-24T02:10:44.359Z,992.1
2023-05-24T02:13:10.974Z,992.1
2023-05-24T02:15:37.611Z,992.1
2023-05-24T02:18:02.717Z,992.1
2023-05-24T02:22:55.980Z,992.1
2023-05-24T02:25:22.589Z,992.2
2023-05-24T02:27:49.216Z,992.2
2023-05-24T02:30:15.836Z,992.1
2023-05-24T02:32:42.465Z,992.1
2023-05-24T02:35:09.069Z,992.2
2023-05-24T02:37:35.705Z,992.2
2023-05-24T02:40:02.336Z,992.2
2023-05-24T02:42:28.943Z,992.2
2023-05-24T02:44:55.579Z,992.1
2023-05-24T02:47:22.198Z,992.1
2023-05-24T02:49:48.831Z,992.1
2023-05-24T02:52:13.940Z,992.1
2023-05-24T02:54:40.584Z,992.1
2023-05-24T02:57:07.193Z,992.1
2023-05-24T02:59:33.832Z,992.1
2023-05-24T03:02:00.447Z,992.1
2023-05-24T03:06:53.690Z,992.1
2023-05-24T03:09:20.301Z,992.1
2023-05-24T03:11:46.936Z,992
2023-05-24T03:14:13.554Z,992.1
2023-05-24T03:16:40.177Z,992.1
2023-05-24T03:19:06.788Z,992.1
2023-05-24T03:21:33.418Z,992.1
2023-05-24T03:23:58.551Z,992.2
2023-05-24T03:26:25.172Z,992.2
2023-05-24T03:28:51.789Z,992.2
2023-05-24T03:31:18.417Z,992.2
2023-05-24T03:33:45.030Z,992.2
2023-05-24T03:36:11.681Z,992.2
2023-05-24T03:38:38.302Z,992.1
2023-05-24T03:41:04.901Z,992.2
2023-05-24T03:43:31.533Z,992.1
2023-05-24T03:45:58.170Z,992.1
2023-05-24T03:48:24.779Z,992.1
2023-05-24T03:50:51.398Z,992.1
2023-05-24T03:53:18.021Z,992.1
2023-05-24T03:55:43.146Z,992.1
2023-05-24T03:58:09.751Z,992.1
2023-05-24T04:00:36.383Z,992.1
2023-05-24T04:03:03.027Z,992.1
2023-05-24T04:05:29.619Z,992.1
2023-05-24T04:07:56.258Z,992.1
2023-05-24T04:10:22.872Z,992.1
2023-05-24T04:12:49.503Z,992.1
2023-05-24T04:15:16.118Z,992.1
2023-05-24T04:20:09.360Z,992
2023-05-24T04:22:35.998Z,992
2023-05-24T04:25:02.682Z,992
2023-05-24T04:27:27.741Z,992.1
2023-05-24T04:29:54.368Z,992.1
2023-05-24T04:32:21.003Z,992.1
2023-05-24T04:34:47.630Z,992.1
2023-05-24T04:37:14.223Z,992.1
2023-05-24T04:39:40.910Z,992.1
2023-05-24T04:42:07.480Z,992.2
2023-05-24T04:44:34.121Z,992.2
2023-05-24T04:47:00.732Z,992.2
2023-05-24T04:49:27.347Z,992.3
2023-05-24T04:51:53.993Z,992.2
2023-05-24T04:54:20.589Z,992.2
2023-05-24T04:56:47.211Z,992.3
2023-05-24T04:59:12.368Z,992.3
2023-05-24T05:01:38.981Z,992.3
2023-05-24T05:04:05.576Z,992.4
2023-05-24T05:06:32.239Z,992.4
2023-05-24T05:08:58.833Z,992.4
2023-05-24T05:11:25.472Z,992.4
2023-05-24T05:13:52.090Z,992.5
2023-05-24T05:16:18.708Z,992.4
2023-05-24T05:18:45.318Z,992.5
2023-05-24T05:23:38.572Z,992.4
2023-05-24T05:26:05.178Z,992.5
2023-05-24T05:28:31.800Z,992.5
2023-05-24T05:30:56.943Z,992.5
2023-05-24T05:33:23.567Z,992.5
2023-05-24T05:35:50.219Z,992.5
2023-05-24T05:38:16.849Z,992.4
2023-05-24T05:40:43.422Z,992.4
2023-05-24T05:43:10.050Z,992.4
2023-05-24T05:45:36.727Z,992.4
2023-05-24T05:48:03.292Z,992.3
2023-05-24T05:50:29.973Z,992.4
2023-05-24T05:52:56.550Z,992.4
2023-05-24T05:55:23.150Z,992.4
2023-05-24T05:57:49.856Z,992.5
2023-05-24T06:00:16.425Z,992.5
2023-05-24T06:02:41.654Z,992.4
2023-05-24T06:05:08.188Z,992.4
2023-05-24T06:07:34.840Z,992.4
2023-05-24T06:10:01.557Z,992.4
2023-05-24T06:12:28.141Z,992.4
2023-05-24T06:14:54.729Z,992.4
2023-05-24T06:17:21.421Z,992.4
2023-05-24T06:19:47.946Z,992.4
2023-05-24T06:22:14.651Z,992.4
2023-05-24T06:24:41.181Z,992.4
2023-05-24T06:27:07.768Z,992.4
2023-05-24T06:32:00.993Z,992.4
2023-05-24T06:34:26.128Z,992.4
2023-05-24T06:36:52.751Z,992.4
2023-05-24T06:39:19.373Z,992.4
2023-05-24T06:41:46.008Z,992.4
2023-05-24T06:44:12.621Z,992.3
2023-05-24T06:46:39.247Z,992.5
2023-05-24T06:49:05.863Z,992.5
2023-05-24T06:51:32.488Z,992.6
2023-05-24T06:53:59.153Z,992.6
2023-05-24T06:56:25.775Z,992.6
2023-05-24T06:58:52.354Z,992.6
2023-05-24T07:01:18.985Z,992.7
2023-05-24T07:03:45.591Z,992.7
2023-05-24T07:06:10.745Z,992.7
2023-05-24T07:08:37.356Z,992.8
2023-05-24T07:11:03.975Z,992.8
2023-05-24T07:13:30.606Z,992.8
2023-05-24T07:15:57.218Z,992.9
2023-05-24T07:20:50.564Z,992.9
2023-05-24T07:23:17.083Z,992.9
2023-05-24T07:25:43.716Z,993
2023-05-24T07:28:10.360Z,992.9
2023-05-24T07:30:36.963Z,993
2023-05-24T07:33:03.586Z,993
2023-05-24T07:35:30.194Z,993
2023-05-24T07:37:55.334Z,993.1
2023-05-24T07:40:22.144Z,993
2023-05-24T07:42:48.573Z,993.1
2023-05-24T07:45:15.192Z,993
2023-05-24T07:47:41.814Z,993
2023-05-24T07:50:08.452Z,993
2023-05-24T07:52:35.062Z,993.1
2023-05-24T07:55:01.694Z,993.1
2023-05-24T07:57:28.337Z,993.1
2023-05-24T07:59:54.927Z,993.1
2023-05-24T08:02:21.556Z,993.1
2023-05-24T08:04:48.179Z,993.1
2023-05-24T08:07:14.839Z,993.2
2023-05-24T08:09:41.053Z,993.2
2023-05-24T08:12:07.674Z,993.2
2023-05-24T08:14:34.343Z,993.1
2023-05-24T08:17:00.967Z,993.2
2023-05-24T08:19:27.513Z,993.3
2023-05-24T08:21:54.196Z,993.3
2023-05-24T08:24:20.771Z,993.3
2023-05-24T08:26:47.504Z,993.4
2023-05-24T08:29:14.041Z,993.3
2023-05-24T08:31:40.648Z,993.3
2023-05-24T08:34:07.253Z,993.3
2023-05-24T08:36:33.876Z,993.4
2023-05-24T08:39:00.496Z,993.3
2023-05-24T08:41:25.643Z,993.4
2023-05-24T08:43:52.277Z,993.4
2023-05-24T08:48:45.512Z,993.4
2023-05-24T08:51:12.139Z,993.3
2023-05-24T08:53:38.765Z,993.4
2023-05-24T08:56:05.377Z,993.4
2023-05-24T08:58:32.014Z,993.3
2023-05-24T09:00:58.705Z,993.4
2023-05-24T09:03:25.354Z,993.4
2023-05-24T09:05:51.848Z,993.4
2023-05-24T09:08:18.478Z,993.5
2023-05-24T09:10:45.122Z,993.5
2023-05-24T09:13:11.385Z,993.4
2023-05-24T09:15:37.961Z,993.4
2023-05-24T09:18:04.573Z,993.4
2023-05-24T09:20:31.261Z,993.4
2023-05-24T09:22:57.822Z,993.4
2023-05-24T09:25:24.448Z,993.4
2023-05-24T09:27:51.060Z,993.4
2023-05-24T09:30:17.683Z,993.4
2023-05-24T09:32:44.414Z,993.4
2023-05-24T09:35:10.948Z,993.4
2023-05-24T09:37:37.603Z,993.4
2023-05-24T09:40:04.168Z,993.5
2023-05-24T09:42:30.903Z,993.5
2023-05-24T09:44:55.970Z,993.5
2023-05-24T09:47:22.629Z,993.5
2023-05-24T09:49:49.153Z,993.5
2023-05-24T09:52:15.957Z,993.5
2023-05-24T09:54:42.509Z,993.4
2023-05-24T09:57:08.790Z,993.5
2023-05-24T09:59:35.306Z,993.4
2023-05-24T10:02:01.940Z,993.4
2023-05-24T10:04:28.610Z,993.4
2023-05-24T10:06:55.158Z,993.4
2023-05-24T10:09:21.897Z,993.4
2023-05-24T10:11:48.472Z,993.4
2023-05-24T10:14:14.995Z,993.4
2023-05-24T10:16:41.804Z,993.5
2023-05-24T10:19:08.472Z,993.4
2023-05-24T10:21:34.993Z,993.5
2023-05-24T10:24:01.547Z,993.5
2023-05-24T10:26:28.285Z,993.5
2023-05-24T10:28:53.221Z,993.5
2023-05-24T10:31:20.065Z,993.5
2023-05-24T10:33:45.525Z,993.5
2023-05-24T10:36:12.272Z,993.5
2023-05-24T10:38:38.901Z,993.4
2023-05-24T10:41:05.455Z,993.4
2023-05-24T10:43:32.013Z,993.4
2023-05-24T10:45:58.642Z,993.3
2023-05-24T10:48:25.254Z,993.4
2023-05-24T10:50:51.887Z,993.3
2023-05-24T10:53:18.520Z,993.3
2023-05-24T10:55:45.132Z,993.2
2023-05-24T10:58:11.750Z,993.2
2023-05-24T11:00:37.971Z,993.2
2023-05-24T11:03:04.598Z,993.2
2023-05-24T11:05:31.235Z,993.3
2023-05-24T11:07:57.843Z,993.3
2023-05-24T11:10:24.486Z,993.3
2023-05-24T11:12:51.093Z,993.2
2023-05-24T11:15:17.716Z,993.2
2023-05-24T11:17:44.332Z,993.2
2023-05-24T11:20:10.984Z,993.2
2023-05-24T11:22:37.588Z,993.2
2023-05-24T11:25:04.204Z,993.2
2023-05-24T11:29:57.465Z,993.2
2023-05-24T11:32:22.570Z,993.2
2023-05-24T11:34:49.208Z,993.1
2023-05-24T11:37:15.830Z,993.1
2023-05-24T11:39:42.438Z,993.1
2023-05-24T11:42:09.058Z,993.1
2023-05-24T11:44:35.695Z,993.2
2023-05-24T11:47:02.306Z,993.1
2023-05-24T11:49:28.939Z,993.1
2023-05-24T11:51:55.560Z,993.1
2023-05-24T11:54:22.189Z,993
2023-05-24T11:56:48.810Z,993
2023-05-24T11:59:15.422Z,993.1
2023-05-24T12:01:42.055Z,993
2023-05-24T12:04:08.666Z,993
2023-05-24T12:06:35.285Z,993
2023-05-24T12:09:01.527Z,993
2023-05-24T12:11:28.137Z,993
2023-05-24T12:13:54.768Z,992.9
2023-05-24T12:16:21.384Z,992.9
2023-05-24T12:18:48.023Z,992.9
2023-05-24T12:21:14.640Z,992.8
2023-05-24T12:23:41.252Z,992.9
2023-05-24T12:26:07.904Z,992.9
2023-05-24T12:28:34.498Z,992.9
2023-05-24T12:31:01.135Z,992.9
2023-05-24T12:33:27.750Z,992.9
2023-05-24T12:35:54.390Z,992.8
2023-05-24T12:38:20.999Z,992.8
2023-05-24T12:40:46.122Z,992.8
2023-05-24T12:43:12.742Z,992.8
2023-05-24T12:45:39.364Z,992.8
2023-05-24T12:48:05.995Z,992.8
2023-05-24T12:52:59.230Z,992.7
2023-05-24T12:55:25.858Z,992.7
2023-05-24T13:00:19.099Z,992.7
2023-05-24T13:02:45.723Z,992.7
2023-05-24T13:05:12.348Z,992.7
2023-05-24T13:07:38.974Z,992.6
2023-05-24T13:10:05.602Z,992.6
2023-05-24T13:12:31.818Z,992.5
2023-05-24T13:14:58.466Z,992.6
2023-05-24T13:17:25.067Z,992.4
2023-05-24T13:19:51.687Z,992.5
2023-05-24T13:22:18.311Z,992.5
2023-05-24T13:24:44.928Z,992.4
2023-05-24T13:27:11.561Z,992.4
2023-05-24T13:29:38.191Z,992.4
2023-05-24T13:32:04.808Z,992.4
2023-05-24T13:36:58.129Z,992.3
2023-05-24T13:39:23.418Z,992.3
2023-05-24T13:41:49.420Z,992.3
2023-05-24T13:44:16.129Z,992.3
2023-05-24T13:46:42.860Z,992.2
2023-05-24T13:49:09.437Z,992.2
2023-05-24T13:51:36.001Z,992.2
2023-05-24T13:54:02.544Z,992.2
2023-05-24T13:56:29.140Z,992.1
2023-05-24T13:58:55.758Z,992.1
2023-05-24T14:01:22.401Z,992.1
2023-05-24T14:03:47.542Z,992.1
2023-05-24T14:06:13.748Z,992.1
2023-05-24T14:08:40.369Z,992.2
2023-05-24T14:11:07.091Z,992.2
2023-05-24T14:13:33.646Z,992.2
2023-05-24T14:16:00.242Z,992.2
2023-05-24T14:18:26.976Z,992.2
2023-05-24T14:20:53.523Z,992.1
2023-05-24T14:23:20.144Z,992.1
2023-05-24T14:25:46.729Z,992.1
2023-05-24T14:28:13.393Z,992.1
2023-05-24T14:30:39.984Z,992.1
2023-05-24T14:33:06.599Z,992.1
2023-05-24T14:35:33.232Z,992.1
2023-05-24T14:37:59.851Z,992.1
2023-05-24T14:40:26.580Z,992.1
2023-05-24T14:42:53.093Z,992.1
2023-05-24T14:45:19.711Z,992.1
2023-05-24T14:47:44.846Z,992
2023-05-24T14:50:11.522Z,992.1
2023-05-24T14:52:38.078Z,992.1
2023-05-24T14:55:04.723Z,992.1
2023-05-24T14:57:31.334Z,992.1
2023-05-24T14:59:58.087Z,992.1
2023-05-24T15:02:24.635Z,992.1
2023-05-24T15:04:51.275Z,992.1
2023-05-24T15:07:17.870Z,992.1
2023-05-24T15:09:44.448Z,992.1
2023-05-24T15:12:11.093Z,992.1
2023-05-24T15:14:37.678Z,992
2023-05-24T15:17:04.296Z,992.1
2023-05-24T15:19:30.929Z,992.1
2023-05-24T15:21:56.069Z,992.1
2023-05-24T15:24:22.680Z,992
2023-05-24T15:26:49.295Z,992.1
2023-05-24T15:29:15.919Z,992
2023-05-24T15:31:42.538Z,992
2023-05-24T15:34:09.205Z,992
2023-05-24T15:36:35.783Z,992
2023-05-24T15:39:02.413Z,992
2023-05-24T15:41:29.072Z,992
2023-05-24T15:43:55.306Z,991.9
2023-05-24T15:46:21.931Z,991.9
2023-05-24T15:48:48.607Z,991.9
2023-05-24T15:51:15.169Z,992
2023-05-24T15:53:40.301Z,991.9
2023-05-24T15:56:06.943Z,991.9
2023-05-24T15:58:33.543Z,992
2023-05-24T16:01:00.175Z,992
2023-05-24T16:03:26.777Z,992
2023-05-24T16:05:53.394Z,992
2023-05-24T16:08:20.015Z,992
2023-05-24T16:10:46.706Z,991.9
2023-05-24T16:13:13.270Z,991.9
2023-05-24T16:15:39.988Z,992
2023-05-24T16:18:06.603Z,991.9
2023-05-24T16:20:33.133Z,991.9
2023-05-24T16:22:59.758Z,991.9
2023-05-24T16:25:24.881Z,991.9
2023-05-24T16:27:51.495Z,991.9
2023-05-24T16:30:18.126Z,991.8
2023-05-24T16:32:44.762Z,991.8
2023-05-24T16:35:11.374Z,991.8
2023-05-24T16:37:37.993Z,991.8
2023-05-24T16:40:04.612Z,991.8
2023-05-24T16:42:31.231Z,991.9
2023-05-24T16:44:57.857Z,991.8
2023-05-24T16:47:24.558Z,991.8
2023-05-24T16:49:51.103Z,991.8
2023-05-24T16:52:17.791Z,991.9
2023-05-24T16:54:44.374Z,991.9
2023-05-24T16:57:10.588Z,991.9
2023-05-24T16:59:37.254Z,991.9
2023-05-24T17:02:03.829Z,991.9
2023-05-24T17:04:30.458Z,991.9
2023-05-24T17:06:57.067Z,992
2023-05-24T17:09:23.727Z,992
2023-05-24T17:11:50.321Z,991.9
2023-05-24T17:14:16.945Z,992
2023-05-24T17:16:43.573Z,992
2023-05-24T17:19:10.189Z,992
2023-05-24T17:21:36.821Z,992
2023-05-24T17:24:03.449Z,991.9
2023-05-24T17:26:30.096Z,992
2023-05-24T17:28:56.682Z,992
2023-05-24T17:31:22.933Z,992.1
2023-05-24T17:33:49.527Z,992.1
2023-05-24T17:36:16.159Z,992.1
2023-05-24T17:38:42.775Z,992.1
2023-05-24T17:41:09.456Z,992.1
2023-05-24T17:46:02.640Z,992.1
2023-05-24T17:48:29.254Z,992.1
2023-05-24T17:50:55.884Z,992.1
2023-05-24T17:53:22.498Z,992.1
2023-05-24T17:55:49.131Z,992.1
2023-05-24T18:00:42.371Z,992.1
2023-05-24T18:03:08.999Z,992.2
2023-05-24T18:05:35.217Z,992.2
2023-05-24T18:08:01.850Z,992.3
2023-05-24T18:10:28.091Z,992.3
2023-05-24T18:12:54.706Z,992.3
2023-05-24T18:15:21.329Z,992.3
2023-05-24T18:17:47.977Z,992.4
2023-05-24T18:20:14.563Z,992.4
2023-05-24T18:22:41.233Z,992.3
2023-05-24T18:25:07.811Z,992.4
2023-05-24T18:27:34.441Z,992.4
2023-05-24T18:30:01.067Z,992.4
2023-05-24T18:37:20.938Z,992.4
2023-05-24T18:39:47.552Z,992.4
2023-05-24T18:42:12.692Z,992.4
2023-05-24T18:44:39.326Z,992.5
2023-05-24T18:49:31.129Z,992.6
2023-05-24T18:51:57.693Z,992.6
2023-05-24T18:54:24.316Z,992.6
2023-05-24T18:59:17.580Z,992.7
2023-05-24T19:01:44.190Z,992.7
2023-05-24T19:04:10.812Z,992.7
2023-05-24T19:06:37.412Z,992.7
2023-05-24T19:09:04.060Z,992.7
2023-05-24T19:13:57.297Z,992.8
2023-05-24T19:16:23.902Z,992.8
2023-05-24T19:18:49.114Z,992.9
2023-05-24T19:21:14.164Z,992.8
2023-05-24T19:23:40.806Z,992.9
2023-05-24T19:26:07.442Z,992.8
2023-05-24T19:28:34.096Z,992.9
2023-05-24T19:33:27.355Z,992.9
2023-05-24T19:35:53.904Z,992.9
2023-05-24T19:38:20.542Z,992.9
2023-05-24T19:43:13.775Z,993
2023-05-24T19:45:40.416Z,993
2023-05-24T19:48:07.039Z,993
2023-05-24T19:50:33.643Z,993.1
2023-05-24T19:53:00.274Z,993
2023-05-24T19:55:26.886Z,993
2023-05-24T19:57:53.514Z,993
2023-05-24T20:00:20.132Z,993
2023-05-24T20:02:45.247Z,993.1
2023-05-24T20:05:11.878Z,993.1
2023-05-24T20:07:38.517Z,993.1
2023-05-24T20:10:05.155Z,993.1
2023-05-24T20:12:31.755Z,993.1
2023-05-24T20:14:58.374Z,993.1
2023-05-24T20:17:25.041Z,993.1
2023-05-24T20:19:51.608Z,993.1
2023-05-24T20:22:18.306Z,993.1
2023-05-24T20:27:09.992Z,993.2
2023-05-24T20:29:35.117Z,993.1
2023-05-24T20:32:01.738Z,993.1
2023-05-24T20:34:28.398Z,993.1
2023-05-24T20:41:48.217Z,993.1
2023-05-24T20:44:14.861Z,993.2
2023-05-24T20:46:41.480Z,993.1
2023-05-24T20:49:08.095Z,993.1
2023-05-24T20:51:34.722Z,993.2
2023-05-24T20:56:27.972Z,993.1
2023-05-24T20:58:54.609Z,993.1
2023-05-24T21:01:21.211Z,993.1
2023-05-24T21:03:46.401Z,993.2
2023-05-24T21:06:12.964Z,993.1
2023-05-24T21:08:39.591Z,993
2023-05-24T21:11:06.222Z,993.1
2023-05-24T21:13:32.828Z,993.1
2023-05-24T21:15:59.482Z,993.1
2023-05-24T21:18:26.080Z,993.1
2023-05-24T21:20:52.713Z,993.1
2023-05-24T21:23:19.372Z,993.2
2023-05-24T21:25:45.936Z,993.2
2023-05-24T21:28:12.597Z,993.2
2023-05-24T21:30:39.169Z,993.2
2023-05-24T21:33:04.360Z,993.2
2023-05-24T21:35:30.946Z,993.2
2023-05-24T21:37:56.061Z,993.1
2023-05-24T21:40:22.716Z,993.2
2023-05-24T21:42:49.357Z,993.2
2023-05-24T21:45:15.948Z,993.2
2023-05-24T21:50:09.166Z,993.2
2023-05-24T21:52:35.790Z,993.3
2023-05-24T21:55:02.452Z,993.2
2023-05-24T21:57:29.128Z,993.3
2023-05-24T21:59:55.660Z,993.3
2023-05-24T22:02:22.265Z,993.3
2023-05-24T22:04:48.891Z,993.4
2023-05-24T22:09:42.136Z,993.4
2023-05-24T22:12:07.286Z,993.4
2023-05-24T22:14:33.902Z,993.4
2023-05-24T22:17:00.526Z,993.4
2023-05-24T22:19:27.136Z,993.4
2023-05-24T22:24:18.877Z,993.4
2023-05-24T22:26:45.508Z,993.4
2023-05-24T22:29:12.126Z,993.4
2023-05-24T22:31:38.748Z,993.4
2023-05-24T22:34:05.493Z,993.4
2023-05-24T22:38:58.635Z,993.4
2023-05-24T22:41:25.245Z,993.4
2023-05-24T22:43:51.868Z,993.4
2023-05-24T22:46:18.504Z,993.3
2023-05-24T22:48:45.133Z,993.3
2023-05-24T22:51:11.738Z,993.3
2023-05-24T22:53:36.910Z,993.3
2023-05-24T22:58:30.155Z,993.3
2023-05-24T23:00:56.717Z,993.3
2023-05-24T23:03:23.496Z,993.2
2023-05-24T23:08:16.605Z,993.3
2023-05-24T23:10:43.239Z,993.3
2023-05-24T23:13:09.857Z,993.4
2023-05-24T23:15:36.448Z,993.4
2023-05-24T23:18:03.092Z,993.4
2023-05-24T23:20:29.740Z,993.4
2023-05-24T23:22:56.334Z,993.5
2023-05-24T23:25:21.472Z,993.4
2023-05-24T23:27:48.079Z,993.4
2023-05-24T23:30:14.714Z,993.4
2023-05-24T23:32:41.339Z,993.4
2023-05-24T23:37:34.576Z,993.4
2023-05-24T23:42:27.822Z,993.3
2023-05-24T23:44:54.452Z,993.4
2023-05-24T23:47:21.087Z,993.3
2023-05-24T23:52:14.312Z,993.3
2023-05-24T23:54:40.999Z,993.3
2023-05-24T23:57:07.633Z,993.4
2023-05-24T23:59:32.684Z,993.3
